Time;durP1;ratioP1;P1;durP2;ratioP2;P2;SDS_P1;SDS_P2;PMS_P1;PMS_P2;Temp;Humidity;BMP_temperature;BMP_pressure;BME280_temperature;BME280_humidity;BME280_pressure;Samples;Min_cycle;Max_cycle;Signal;HPM_P1;HPM_P2
2021/12/31 00:00:14;;;;;;;1.15;0.50;;;17.30;49.80;;;;;;5097559;28;20168;-49
2021/12/31 00:02:42;;;;;;;1.20;0.70;;;17.30;49.70;;;;;;5096273;28;20555;-49
2021/12/31 00:05:10;;;;;;;1.95;0.68;;;17.30;49.10;;;;;;5097238;28;20172;-49
2021/12/31 00:07:38;;;;;;;1.20;0.50;;;17.40;49.30;;;;;;5097442;28;20203;-48
2021/12/31 00:10:06;;;;;;;1.30;0.52;;;17.30;48.60;;;;;;5097123;28;20542;-49
2021/12/31 00:12:34;;;;;;;1.67;0.70;;;17.30;49.10;;;;;;5097229;28;20175;-49
2021/12/31 00:15:01;;;;;;;1.40;0.82;;;17.30;49.20;;;;;;5079740;28;20164;-50
2021/12/31 00:17:29;;;;;;;1.20;0.50;;;17.30;48.90;;;;;;5096972;28;20177;-49
2021/12/31 00:20:17;;;;;;;1.20;0.50;;;17.30;48.70;;;;;;5096105;28;20247;-48
2021/12/31 00:25:28;;;;;;;1.50;0.88;;;17.30;49.00;;;;;;5097066;28;20167;-49
2021/12/31 00:27:56;;;;;;;1.40;1.00;;;17.40;48.90;;;;;;5095816;28;20196;-49
2021/12/31 00:30:23;;;;;;;1.17;0.40;;;17.40;48.40;;;;;;5079180;28;20176;-49
2021/12/31 00:32:51;;;;;;;1.30;0.63;;;17.40;48.60;;;;;;5095912;28;20164;-49
2021/12/31 00:35:19;;;;;;;1.77;1.00;;;17.40;48.80;;;;;;5096844;28;20247;-48
2021/12/31 00:37:46;;;;;;;1.75;0.60;;;17.50;48.90;;;;;;5096043;28;20486;-48
2021/12/31 00:40:16;;;;;;;1.20;0.50;;;17.40;48.80;;;;;;5096111;28;20172;-49
2021/12/31 00:42:43;;;;;;;1.38;0.70;;;17.30;48.60;;;;;;5095367;28;20219;-48
2021/12/31 00:45:13;;;;;;;1.83;0.50;;;17.20;49.30;;;;;;5095554;28;20280;-49
2021/12/31 00:47:42;;;;;;;1.52;0.85;;;17.20;49.40;;;;;;5078891;28;20263;-48
2021/12/31 00:50:12;;;;;;;1.50;0.73;;;17.30;49.50;;;;;;5096464;28;20467;-49
2021/12/31 00:52:39;;;;;;;2.20;0.85;;;17.30;49.30;;;;;;5079030;28;20156;-49
2021/12/31 00:55:09;;;;;;;1.30;0.73;;;17.30;49.30;;;;;;5078163;28;20168;-49
2021/12/31 00:57:37;;;;;;;1.30;0.70;;;17.30;49.20;;;;;;5096229;28;20160;-48
2021/12/31 01:00:07;;;;;;;2.50;0.90;;;17.30;49.30;;;;;;5095389;28;20175;-48
2021/12/31 01:02:34;;;;;;;1.27;0.57;;;17.30;49.20;;;;;;5095199;28;20628;-48
2021/12/31 01:05:02;;;;;;;1.30;0.80;;;17.30;49.30;;;;;;5095159;28;20237;-48
2021/12/31 01:07:31;;;;;;;1.17;0.50;;;17.30;49.00;;;;;;5094835;28;20286;-49
2021/12/31 01:10:00;;;;;;;2.00;0.65;;;17.30;49.10;;;;;;5095125;28;20478;-49
2021/12/31 01:12:28;;;;;;;7.95;0.90;;;17.30;49.00;;;;;;5096119;28;20650;-49
2021/12/31 01:15:01;;;;;;;3.03;0.68;;;17.40;49.00;;;;;;5095898;28;20217;-48
2021/12/31 01:20:17;;;;;;;1.20;0.60;;;17.40;48.90;;;;;;5095381;28;20199;-48
2021/12/31 01:22:45;;;;;;;1.20;0.47;;;17.30;48.70;;;;;;5094791;28;20152;-48
2021/12/31 01:25:13;;;;;;;1.30;0.60;;;17.30;49.00;;;;;;5095794;28;20171;-49
2021/12/31 01:27:41;;;;;;;1.42;0.50;;;17.40;49.00;;;;;;5094594;28;20222;-49
2021/12/31 01:30:10;;;;;;;1.60;0.60;;;17.40;48.90;;;;;;5094968;28;20305;-49
2021/12/31 01:32:37;;;;;;;1.20;0.50;;;17.40;48.70;;;;;;5094892;28;20163;-49
2021/12/31 01:35:05;;;;;;;1.20;0.40;;;17.40;48.90;;;;;;5094705;28;20190;-49
2021/12/31 01:37:32;;;;;;;1.10;0.40;;;17.40;48.70;;;;;;5095549;28;20163;-48
2021/12/31 01:40:00;;;;;;;1.30;0.60;;;17.40;48.70;;;;;;5095563;28;20164;-49
2021/12/31 01:42:32;;;;;;;1.27;0.63;;;17.40;48.50;;;;;;5094123;28;20334;-48
2021/12/31 01:45:05;;;;;;;1.10;0.40;;;17.40;48.80;;;;;;5095319;28;20169;-50
2021/12/31 01:47:35;;;;;;;1.50;0.57;;;17.30;48.60;;;;;;5078236;28;20218;-48
2021/12/31 01:50:08;;;;;;;1.30;0.60;;;17.20;49.10;;;;;;5095323;28;20210;-49
2021/12/31 01:52:39;;;;;;;1.50;0.60;;;17.30;49.20;;;;;;5094453;28;20141;-49
2021/12/31 01:55:11;;;;;;;1.45;0.65;;;17.40;49.10;;;;;;5094282;28;20160;-49
2021/12/31 01:57:42;;;;;;;1.20;0.57;;;17.40;48.50;;;;;;5094413;28;20172;-48
2021/12/31 02:00:11;;;;;;;1.20;0.43;;;17.40;49.00;;;;;;5095408;28;20163;-48
2021/12/31 02:02:42;;;;;;;1.27;0.60;;;17.20;48.90;;;;;;5095091;28;20263;-48
2021/12/31 02:05:10;;;;;;;1.30;0.60;;;17.20;49.30;;;;;;5094700;28;20163;-48
2021/12/31 02:07:38;;;;;;;1.30;0.50;;;17.20;49.40;;;;;;5094273;28;20195;-49
2021/12/31 02:10:08;;;;;;;1.20;0.40;;;17.20;49.30;;;;;;5094334;28;20156;-48
2021/12/31 02:12:39;;;;;;;1.20;0.70;;;17.20;49.30;;;;;;5077275;28;20267;-50
2021/12/31 02:15:06;;;;;;;1.23;0.43;;;17.20;49.40;;;;;;5095350;28;20278;-49
2021/12/31 02:17:34;;;;;;;1.30;0.40;;;17.20;49.20;;;;;;5094211;28;20717;-48
2021/12/31 02:20:07;;;;;;;1.30;0.60;;;17.20;49.30;;;;;;5095146;28;20265;-48
2021/12/31 02:22:39;;;;;;;1.10;0.40;;;17.30;49.10;;;;;;5094021;28;20231;-48
2021/12/31 02:25:07;;;;;;;1.10;0.40;;;17.20;49.40;;;;;;5093983;28;20168;-48
2021/12/31 02:27:41;;;;;;;1.10;0.40;;;17.10;49.60;;;;;;5093982;28;20191;-49
2021/12/31 02:30:11;;;;;;;1.30;0.75;;;17.10;49.60;;;;;;5094058;28;20160;-49
2021/12/31 02:32:39;;;;;;;1.25;0.43;;;17.10;49.80;;;;;;5094966;28;20156;-49
2021/12/31 02:35:09;;;;;;;1.30;0.50;;;17.30;49.40;;;;;;5077415;28;20196;-49
2021/12/31 02:37:36;;;;;;;1.40;0.60;;;17.30;49.20;;;;;;5095259;28;20164;-49
2021/12/31 02:40:08;;;;;;;1.20;0.50;;;17.30;49.30;;;;;;5060558;28;20179;-49
2021/12/31 02:42:36;;;;;;;2.42;0.75;;;17.30;49.30;;;;;;5093583;28;20244;-49
2021/12/31 02:45:03;;;;;;;1.20;0.50;;;17.20;49.50;;;;;;5095149;28;20176;-49
2021/12/31 02:47:31;;;;;;;1.20;0.50;;;17.20;49.70;;;;;;5077125;28;20180;-49
2021/12/31 02:49:58;;;;;;;1.55;0.50;;;17.10;49.90;;;;;;5095053;28;20200;-49
2021/12/31 02:52:26;;;;;;;1.50;0.50;;;17.20;49.80;;;;;;5093980;28;20156;-50
2021/12/31 02:54:56;;;;;;;1.20;0.45;;;17.20;49.50;;;;;;5094585;28;20180;-49
2021/12/31 02:57:23;;;;;;;1.10;0.30;;;17.20;49.40;;;;;;5093837;28;20187;-49
2021/12/31 02:59:51;;;;;;;1.20;0.40;;;17.20;49.30;;;;;;5094517;28;20557;-49
2021/12/31 03:02:24;;;;;;;1.67;0.60;;;17.20;49.30;;;;;;5077011;28;20160;-49
2021/12/31 03:04:58;;;;;;;1.20;0.50;;;17.30;49.50;;;;;;5077469;28;20505;-49
2021/12/31 03:07:27;;;;;;;1.30;0.40;;;17.20;49.40;;;;;;5093436;28;20202;-49
2021/12/31 03:09:55;;;;;;;2.65;0.77;;;17.30;49.40;;;;;;5094567;28;20168;-49
2021/12/31 03:12:23;;;;;;;1.58;0.50;;;17.20;49.30;;;;;;5094506;28;20605;-48
2021/12/31 03:14:50;;;;;;;1.25;0.47;;;17.10;49.90;;;;;;5077036;28;20186;-49
2021/12/31 03:17:20;;;;;;;1.40;0.50;;;17.20;49.40;;;;;;5093502;28;20179;-49
2021/12/31 03:19:48;;;;;;;1.10;0.30;;;17.20;49.30;;;;;;5096685;28;20172;-49
2021/12/31 03:22:16;;;;;;;1.17;0.50;;;17.30;49.30;;;;;;5098061;28;20203;-48
2021/12/31 03:24:43;;;;;;;1.10;0.30;;;17.30;49.30;;;;;;5097579;28;20180;-49
2021/12/31 03:27:10;;;;;;;1.20;0.50;;;17.30;49.10;;;;;;5097105;28;20184;-48
2021/12/31 03:29:38;;;;;;;1.10;0.38;;;17.20;49.30;;;;;;5098141;28;20164;-48
2021/12/31 03:32:05;;;;;;;1.10;0.30;;;17.30;49.30;;;;;;5098148;28;20246;-49
2021/12/31 03:34:33;;;;;;;1.50;0.50;;;17.20;49.50;;;;;;5097905;28;20160;-48
2021/12/31 03:37:00;;;;;;;1.10;0.30;;;17.20;49.30;;;;;;5098054;28;20164;-50
2021/12/31 03:39:27;;;;;;;1.30;0.68;;;17.20;49.70;;;;;;5097895;28;20164;-49
2021/12/31 03:41:54;;;;;;;1.20;0.50;;;17.10;49.70;;;;;;5096626;28;20774;-49
2021/12/31 03:44:22;;;;;;;1.10;0.30;;;17.20;49.60;;;;;;5098072;28;20218;-49
2021/12/31 03:46:50;;;;;;;1.10;0.30;;;17.20;49.60;;;;;;5097548;28;20202;-49
2021/12/31 03:49:17;;;;;;;1.48;0.50;;;17.20;49.40;;;;;;5097541;28;20195;-49
2021/12/31 03:51:44;;;;;;;3.60;0.77;;;17.20;49.50;;;;;;5096773;28;20192;-49
2021/12/31 03:54:12;;;;;;;1.45;0.43;;;17.20;49.50;;;;;;5097708;28;20612;-49
2021/12/31 03:56:40;;;;;;;1.10;0.40;;;17.30;49.30;;;;;;5097646;28;20596;-49
2021/12/31 03:59:07;;;;;;;1.10;0.30;;;17.30;49.10;;;;;;5096677;28;20251;-48
2021/12/31 04:01:35;;;;;;;3.05;0.70;;;17.30;48.70;;;;;;5097277;28;20170;-49
2021/12/31 04:04:02;;;;;;;1.20;0.32;;;17.20;49.10;;;;;;5097463;28;20540;-48
2021/12/31 04:06:29;;;;;;;1.10;0.35;;;17.10;49.20;;;;;;5097242;28;20194;-49
2021/12/31 04:08:56;;;;;;;1.10;0.40;;;17.10;49.10;;;;;;5097171;28;20164;-49
2021/12/31 04:11:24;;;;;;;1.20;0.40;;;17.10;49.30;;;;;;5097091;28;20243;-48
2021/12/31 04:13:51;;;;;;;1.20;0.30;;;17.10;49.30;;;;;;5097754;28;20259;-48
2021/12/31 04:16:19;;;;;;;1.17;0.40;;;17.10;49.20;;;;;;5097011;28;20164;-49
2021/12/31 04:18:46;;;;;;;2.30;0.70;;;17.10;49.10;;;;;;5096226;28;20179;-49
2021/12/31 04:21:19;;;;;;;1.10;0.43;;;17.10;49.00;;;;;;5097084;28;20241;-49
2021/12/31 04:23:53;;;;;;;1.42;0.38;;;17.10;48.90;;;;;;5096983;28;20176;-50
2021/12/31 04:26:21;;;;;;;1.10;0.35;;;17.10;48.90;;;;;;5096725;28;20211;-48
2021/12/31 04:28:48;;;;;;;1.10;0.40;;;17.10;48.90;;;;;;5096062;28;20498;-49
2021/12/31 04:31:16;;;;;;;1.23;0.40;;;17.00;48.90;;;;;;5095851;28;20156;-49
2021/12/31 04:33:43;;;;;;;1.20;0.30;;;16.90;49.50;;;;;;5096857;28;20494;-49
2021/12/31 04:36:11;;;;;;;1.13;0.40;;;16.90;49.50;;;;;;5095934;28;20163;-48
2021/12/31 04:38:39;;;;;;;1.20;0.40;;;16.90;49.20;;;;;;5095691;28;20245;-50
2021/12/31 04:41:06;;;;;;;1.20;0.40;;;16.80;49.40;;;;;;5078753;28;20166;-49
2021/12/31 04:43:34;;;;;;;1.30;0.40;;;16.70;49.60;;;;;;5095683;28;20148;-48
2021/12/31 04:46:01;;;;;;;1.20;0.40;;;16.70;49.60;;;;;;5096543;28;20478;-48
2021/12/31 04:48:28;;;;;;;1.65;0.73;;;16.70;49.90;;;;;;5096383;28;20171;-49
2021/12/31 04:50:56;;;;;;;1.10;0.30;;;16.70;50.40;;;;;;5096553;28;20164;-48
2021/12/31 04:53:23;;;;;;;1.20;0.40;;;16.70;49.60;;;;;;5096528;28;20163;-49
2021/12/31 04:55:51;;;;;;;1.13;0.47;;;16.80;49.20;;;;;;5096252;28;20473;-49
2021/12/31 04:58:19;;;;;;;1.35;0.40;;;16.80;49.20;;;;;;5096214;28;20549;-49
2021/12/31 05:00:46;;;;;;;1.13;0.32;;;16.70;49.50;;;;;;5096302;28;20171;-48
2021/12/31 05:03:14;;;;;;;1.38;0.60;;;16.70;49.80;;;;;;5096315;28;20190;-49
2021/12/31 05:05:41;;;;;;;1.50;0.38;;;16.80;49.50;;;;;;5096332;28;20205;-49
2021/12/31 05:08:08;;;;;;;1.60;0.50;;;16.80;49.70;;;;;;5095981;28;20207;-49
2021/12/31 05:10:36;;;;;;;1.10;0.25;;;16.80;49.80;;;;;;5095093;28;20589;-48
2021/12/31 05:13:04;;;;;;;1.40;0.63;;;16.80;49.60;;;;;;5096214;28;20279;-49
2021/12/31 05:15:35;;;;;;;1.33;0.40;;;16.90;49.70;;;;;;5061892;28;20222;-49
2021/12/31 05:18:03;;;;;;;1.30;0.70;;;16.90;49.60;;;;;;5078930;28;20180;-49
2021/12/31 05:20:31;;;;;;;1.67;0.77;;;16.80;49.90;;;;;;5095774;28;20215;-48
2021/12/31 05:23:00;;;;;;;1.25;0.63;;;16.80;49.90;;;;;;5094887;28;20493;-48
2021/12/31 05:25:27;;;;;;;1.23;0.43;;;16.80;50.10;;;;;;5095955;28;20159;-50
2021/12/31 05:27:55;;;;;;;1.20;0.60;;;16.70;50.20;;;;;;5078297;28;20196;-49
2021/12/31 05:30:23;;;;;;;1.77;0.80;;;16.90;49.80;;;;;;5095728;28;20543;-49
2021/12/31 05:32:50;;;;;;;1.50;0.80;;;16.90;49.90;;;;;;5095566;28;20156;-48
2021/12/31 05:35:17;;;;;;;1.40;0.68;;;16.90;50.50;;;;;;5095536;28;20282;-49
2021/12/31 05:37:44;;;;;;;1.30;0.70;;;16.90;49.60;;;;;;5094525;28;20199;-48
2021/12/31 05:40:12;;;;;;;1.27;0.60;;;17.00;49.40;;;;;;5094698;28;20192;-48
2021/12/31 05:42:39;;;;;;;1.25;0.68;;;17.00;49.50;;;;;;5095315;28;20230;-49
2021/12/31 05:45:09;;;;;;;1.50;0.70;;;17.00;49.10;;;;;;5095434;28;20253;-49
2021/12/31 05:47:38;;;;;;;1.17;0.50;;;16.90;49.50;;;;;;5094606;28;20183;-50
2021/12/31 05:50:08;;;;;;;1.30;0.70;;;16.90;49.60;;;;;;5077893;28;20239;-48
2021/12/31 05:52:35;;;;;;;1.30;0.52;;;17.00;49.40;;;;;;5094367;28;20247;-48
2021/12/31 05:55:05;;;;;;;2.75;0.80;;;17.00;49.30;;;;;;5095228;28;20229;-48
2021/12/31 05:57:32;;;;;;;1.67;0.63;;;17.00;49.40;;;;;;5077860;28;20159;-49
2021/12/31 05:59:59;;;;;;;1.98;0.70;;;17.10;49.10;;;;;;5094328;28;20175;-49
2021/12/31 06:02:27;;;;;;;1.40;0.50;;;17.10;49.10;;;;;;5095313;28;20167;-48
2021/12/31 06:04:54;;;;;;;1.30;0.50;;;17.10;48.90;;;;;;5094411;28;20221;-49
2021/12/31 06:07:21;;;;;;;1.20;0.50;;;17.10;48.20;;;;;;5095085;28;20202;-49
2021/12/31 06:09:48;;;;;;;1.20;0.50;;;17.10;48.30;;;;;;5095294;28;20585;-49
2021/12/31 06:12:15;;;;;;;1.85;0.88;;;16.90;49.10;;;;;;5095154;28;20214;-49
2021/12/31 06:14:43;;;;;;;1.40;0.52;;;16.80;49.40;;;;;;5095022;28;20198;-49
2021/12/31 06:17:11;;;;;;;1.20;0.55;;;16.90;49.50;;;;;;5094942;28;20171;-49
2021/12/31 06:19:40;;;;;;;1.30;0.55;;;17.00;49.40;;;;;;5094323;28;20233;-49
2021/12/31 06:22:07;;;;;;;1.30;0.55;;;17.00;49.20;;;;;;5077414;28;20673;-49
2021/12/31 06:24:35;;;;;;;1.20;0.43;;;17.00;49.20;;;;;;5094424;28;20183;-48
2021/12/31 06:27:02;;;;;;;1.70;0.70;;;17.00;50.00;;;;;;5093905;28;20204;-48
2021/12/31 06:29:30;;;;;;;1.30;0.35;;;17.00;49.20;;;;;;5094773;28;20168;-49
2021/12/31 06:31:57;;;;;;;1.10;0.40;;;16.90;49.20;;;;;;5095068;28;20165;-49
2021/12/31 06:34:25;;;;;;;2.00;0.63;;;16.80;49.40;;;;;;5094150;28;20293;-49
2021/12/31 06:36:52;;;;;;;1.30;0.60;;;16.90;48.80;;;;;;5094655;28;20537;-49
2021/12/31 06:39:20;;;;;;;1.10;0.30;;;16.90;49.20;;;;;;5094709;28;20175;-49
2021/12/31 06:41:48;;;;;;;1.85;0.55;;;17.00;48.40;;;;;;5094464;28;20678;-49
2021/12/31 06:44:15;;;;;;;1.20;0.40;;;17.10;48.30;;;;;;5094020;28;20176;-49
2021/12/31 06:46:42;;;;;;;1.20;0.50;;;17.10;48.20;;;;;;5077137;28;20195;-49
2021/12/31 06:49:09;;;;;;;1.23;0.57;;;17.10;49.00;;;;;;5094834;28;20194;-48
2021/12/31 06:51:36;;;;;;;1.27;0.63;;;17.20;47.60;;;;;;5093778;28;20550;-48
2021/12/31 06:54:04;;;;;;;1.30;0.50;;;17.20;47.40;;;;;;5095483;28;20609;-50
2021/12/31 06:56:32;;;;;;;1.20;0.43;;;17.10;47.30;;;;;;5098833;28;20252;-49
2021/12/31 06:58:59;;;;;;;1.20;0.50;;;17.10;47.10;;;;;;5098207;28;20168;-48
2021/12/31 07:01:27;;;;;;;1.10;0.30;;;17.00;47.60;;;;;;5098461;28;20230;-48
2021/12/31 07:03:54;;;;;;;1.20;0.50;;;17.10;47.10;;;;;;5097552;28;20203;-49
2021/12/31 07:06:21;;;;;;;1.45;0.50;;;17.10;47.10;;;;;;5098342;28;20160;-48
2021/12/31 07:08:48;;;;;;;1.10;0.47;;;17.10;47.30;;;;;;5098699;28;20168;-49
2021/12/31 07:11:22;;;;;;;1.20;0.50;;;17.20;46.90;;;;;;5098255;28;20160;-48
2021/12/31 07:13:50;;;;;;;1.20;0.40;;;17.20;46.70;;;;;;5098116;28;20512;-49
2021/12/31 07:16:18;;;;;;;1.75;0.52;;;17.20;46.70;;;;;;5080619;28;20550;-49
2021/12/31 07:18:46;;;;;;;1.42;0.45;;;17.30;46.70;;;;;;5098294;28;20167;-49
2021/12/31 07:21:13;;;;;;;1.20;0.50;;;17.30;46.80;;;;;;5097438;28;20175;-49
2021/12/31 07:23:41;;;;;;;1.20;0.57;;;17.30;46.80;;;;;;5097247;28;20230;-49
2021/12/31 07:26:08;;;;;;;1.40;0.60;;;17.40;46.30;;;;;;5097901;28;20239;-48
2021/12/31 07:28:35;;;;;;;1.20;0.30;;;17.30;46.20;;;;;;5097333;28;20165;-49
2021/12/31 07:31:03;;;;;;;1.92;0.82;;;17.40;46.10;;;;;;5097898;28;20156;-49
2021/12/31 07:33:30;;;;;;;1.10;0.30;;;17.40;46.20;;;;;;5097857;28;20164;-48
2021/12/31 07:36:00;;;;;;;1.30;0.43;;;17.40;45.70;;;;;;5097019;28;20520;-49
2021/12/31 07:38:32;;;;;;;1.70;0.80;;;17.40;45.80;;;;;;5097820;28;20668;-49
2021/12/31 07:41:01;;;;;;;1.67;0.50;;;17.50;45.90;;;;;;5096727;28;20182;-49
2021/12/31 07:43:28;;;;;;;1.45;0.50;;;17.60;45.90;;;;;;5097669;28;20172;-49
2021/12/31 07:45:56;;;;;;;1.60;0.65;;;17.50;45.20;;;;;;5080080;28;20168;-48
2021/12/31 07:48:24;;;;;;;1.20;0.40;;;17.50;44.90;;;;;;5080240;28;20192;-49
2021/12/31 07:50:53;;;;;;;1.15;0.40;;;17.40;45.30;;;;;;5096702;28;20171;-49
2021/12/31 07:53:21;;;;;;;1.30;0.30;;;17.50;45.40;;;;;;5096528;28;20160;-49
2021/12/31 07:55:48;;;;;;;1.10;0.30;;;17.50;45.00;;;;;;5096489;28;20188;-49
2021/12/31 07:58:15;;;;;;;2.10;0.50;;;17.50;45.40;;;;;;5097460;28;20171;-49
2021/12/31 08:00:43;;;;;;;1.50;0.52;;;17.50;45.10;;;;;;5097758;28;20195;-48
2021/12/31 08:03:10;;;;;;;1.30;0.38;;;17.50;45.60;;;;;;5097282;28;20196;-48
2021/12/31 08:05:37;;;;;;;1.23;0.35;;;17.50;45.30;;;;;;5095263;28;20199;-49
2021/12/31 08:08:06;;;;;;;1.38;0.50;;;17.40;44.90;;;;;;5097365;28;20195;-49
2021/12/31 08:10:38;;;;;;;1.17;0.40;;;17.40;45.30;;;;;;5096299;28;20163;-48
2021/12/31 08:13:05;;;;;;;1.10;0.30;;;17.50;45.10;;;;;;5096192;28;20202;-49
2021/12/31 08:15:33;;;;;;;1.30;0.65;;;17.40;45.00;;;;;;5079601;28;20217;-48
2021/12/31 08:18:00;;;;;;;1.30;0.47;;;17.40;45.20;;;;;;5096353;28;20233;-49
2021/12/31 08:20:28;;;;;;;1.10;0.40;;;17.40;45.10;;;;;;5097147;28;20191;-49
2021/12/31 08:22:55;;;;;;;1.20;0.50;;;17.30;45.40;;;;;;5096012;28;20175;-49
2021/12/31 08:25:23;;;;;;;2.47;1.23;;;17.20;45.70;;;;;;5095931;28;20164;-49
2021/12/31 08:27:50;;;;;;;1.30;0.65;;;17.30;45.50;;;;;;5096839;28;20199;-48
2021/12/31 08:30:18;;;;;;;1.38;0.50;;;17.20;45.60;;;;;;5096972;28;20156;-49
2021/12/31 08:32:45;;;;;;;1.30;0.50;;;17.30;45.80;;;;;;5096673;28;20606;-50
2021/12/31 08:35:12;;;;;;;1.55;0.50;;;17.30;45.10;;;;;;5096689;28;20257;-49
2021/12/31 08:37:39;;;;;;;1.20;0.50;;;17.40;45.70;;;;;;5096664;28;20541;-49
2021/12/31 08:40:07;;;;;;;1.20;0.32;;;17.50;45.30;;;;;;5096699;28;20199;-49
2021/12/31 08:42:35;;;;;;;1.73;0.70;;;17.60;45.00;;;;;;5096292;28;20288;-49
2021/12/31 08:45:04;;;;;;;1.40;0.80;;;17.60;44.80;;;;;;5096443;28;20171;-49
2021/12/31 08:47:31;;;;;;;1.30;0.43;;;17.60;44.70;;;;;;5096360;28;20199;-49
2021/12/31 08:49:59;;;;;;;2.67;0.85;;;17.60;45.00;;;;;;5095543;28;20168;-49
2021/12/31 08:52:26;;;;;;;1.55;0.55;;;17.70;44.70;;;;;;5096672;28;20660;-49
2021/12/31 08:54:54;;;;;;;1.38;0.60;;;17.70;45.00;;;;;;5095502;28;20168;-51
2021/12/31 08:57:21;;;;;;;1.50;0.70;;;17.60;45.00;;;;;;5096193;28;20164;-49
2021/12/31 08:59:48;;;;;;;1.20;0.40;;;17.60;45.00;;;;;;5096082;28;20174;-49
2021/12/31 09:02:15;;;;;;;1.55;0.65;;;17.60;45.10;;;;;;5095453;28;20160;-49
2021/12/31 09:04:43;;;;;;;1.13;0.32;;;17.60;45.00;;;;;;5095096;28;20201;-48
2021/12/31 09:07:10;;;;;;;2.20;0.65;;;17.70;44.80;;;;;;5096163;28;20187;-49
2021/12/31 09:09:38;;;;;;;1.30;0.50;;;17.60;45.10;;;;;;5095109;28;20160;-49
2021/12/31 09:12:06;;;;;;;1.92;0.70;;;17.50;45.40;;;;;;5096109;28;20243;-50
2021/12/31 09:14:33;;;;;;;1.60;0.50;;;17.60;45.00;;;;;;5095074;28;20164;-49
2021/12/31 09:17:01;;;;;;;1.10;0.40;;;17.50;45.30;;;;;;5095480;28;20600;-49
2021/12/31 09:19:28;;;;;;;2.03;0.60;;;17.40;45.40;;;;;;5094906;28;20164;-49
2021/12/31 09:21:55;;;;;;;1.60;0.82;;;17.30;45.90;;;;;;5095611;28;20726;-50
2021/12/31 09:24:23;;;;;;;1.30;0.52;;;17.40;45.50;;;;;;5094815;28;20168;-49
2021/12/31 09:26:51;;;;;;;1.23;0.60;;;17.40;45.50;;;;;;5094764;28;20555;-49
2021/12/31 09:29:21;;;;;;;1.30;0.70;;;17.40;45.40;;;;;;5094866;28;20168;-49
2021/12/31 09:31:49;;;;;;;1.30;0.80;;;17.50;45.50;;;;;;5094465;28;20168;-50
2021/12/31 09:34:17;;;;;;;1.95;0.50;;;17.60;44.70;;;;;;5095551;28;20247;-50
2021/12/31 09:36:44;;;;;;;3.33;0.60;;;17.60;44.70;;;;;;5094774;28;20269;-49
2021/12/31 09:39:12;;;;;;;1.92;0.82;;;17.70;44.70;;;;;;5094713;28;20175;-49
2021/12/31 09:41:39;;;;;;;1.90;1.02;;;17.70;44.40;;;;;;5095065;28;20220;-49
2021/12/31 09:44:07;;;;;;;1.33;0.70;;;17.70;44.30;;;;;;5095372;28;20167;-50
2021/12/31 09:46:35;;;;;;;1.20;0.50;;;17.70;44.40;;;;;;5077742;28;20195;-51
2021/12/31 09:49:03;;;;;;;1.95;1.00;;;17.80;44.40;;;;;;5094440;28;20500;-49
2021/12/31 09:51:31;;;;;;;1.50;0.50;;;17.80;43.90;;;;;;5095252;28;20156;-49
2021/12/31 09:53:59;;;;;;;2.65;0.82;;;17.70;44.10;;;;;;5077672;28;20498;-50
2021/12/31 09:56:27;;;;;;;2.90;0.85;;;17.70;44.40;;;;;;5094267;28;20156;-49
2021/12/31 09:58:55;;;;;;;2.47;1.00;;;17.70;44.20;;;;;;5095153;28;20168;-49
2021/12/31 10:01:22;;;;;;;1.70;0.80;;;17.80;44.30;;;;;;5095482;28;20183;-50
2021/12/31 10:03:58;;;;;;;1.52;1.02;;;17.80;44.10;;;;;;5094331;28;20207;-50
2021/12/31 10:06:25;;;;;;;1.85;0.70;;;17.90;44.00;;;;;;5094181;28;20178;-49
2021/12/31 10:08:57;;;;;;;1.40;0.77;;;17.90;43.40;;;;;;5094083;28;20183;-49
2021/12/31 10:11:25;;;;;;;1.75;0.90;;;17.80;43.60;;;;;;5094666;28;20160;-49
2021/12/31 10:14:05;;;;;;;2.00;0.70;;;17.90;44.40;;;;;;5094185;28;20253;-49
2021/12/31 10:16:40;;;;;;;1.40;0.63;;;18.20;43.00;;;;;;5093992;28;20156;-49
2021/12/31 10:19:16;;;;;;;2.20;1.30;;;18.80;42.50;;;;;;5094035;28;20668;-49
2021/12/31 10:21:50;;;;;;;1.85;0.70;;;19.00;41.00;;;;;;5094506;28;20247;-49
2021/12/31 10:24:41;;;;;;;1.85;0.90;;;20.20;40.00;;;;;;5093925;28;20182;-49
2021/12/31 10:27:17;;;;;;;1.92;0.77;;;21.20;39.10;;;;;;5078422;28;20624;-49
2021/12/31 10:30:06;;;;;;;1.30;0.57;;;22.40;35.40;;;;;;5098091;28;20179;-49
2021/12/31 10:32:40;;;;;;;1.83;0.80;;;23.20;35.00;;;;;;5098577;28;20252;-49
2021/12/31 10:35:18;;;;;;;2.00;0.90;;;23.90;33.90;;;;;;5098059;28;20228;-49
2021/12/31 10:37:45;;;;;;;1.30;0.60;;;24.80;31.40;;;;;;5097920;28;20386;-49
2021/12/31 10:40:26;;;;;;;2.30;0.70;;;25.10;30.10;;;;;;5098286;28;20470;-49
2021/12/31 10:43:21;;;;;;;4.80;1.10;;;25.50;29.60;;;;;;5097926;28;20465;-49
2021/12/31 10:46:11;;;;;;;3.40;0.80;;;25.50;30.10;;;;;;5098041;28;20505;-49
2021/12/31 10:48:39;;;;;;;1.60;0.87;;;26.10;28.60;;;;;;5099085;28;20417;-49
2021/12/31 10:51:08;;;;;;;5.87;0.77;;;26.20;28.50;;;;;;5098696;28;20396;-49
2021/12/31 10:53:37;;;;;;;1.93;0.73;;;26.00;27.80;;;;;;5097790;28;20917;-49
2021/12/31 10:56:10;;;;;;;1.50;0.80;;;25.60;28.10;;;;;;5098682;28;20386;-49
2021/12/31 10:58:39;;;;;;;1.50;0.77;;;25.40;30.00;;;;;;5098541;28;20393;-49
2021/12/31 11:01:12;;;;;;;1.70;0.67;;;25.70;28.00;;;;;;5097561;28;20436;-49
2021/12/31 11:03:41;;;;;;;1.30;0.70;;;25.40;28.90;;;;;;5081346;28;20386;-49
2021/12/31 11:06:13;;;;;;;1.27;0.47;;;25.00;28.70;;;;;;5098555;28;20481;-50
2021/12/31 11:08:46;;;;;;;4.73;3.97;;;24.50;29.70;;;;;;5065043;28;20409;-49
2021/12/31 11:11:19;;;;;;;1.83;1.17;;;23.90;31.00;;;;;;5097632;28;20374;-49
2021/12/31 11:13:47;;;;;;;1.50;0.87;;;23.80;31.40;;;;;;5081145;28;20390;-49
2021/12/31 11:16:15;;;;;;;1.23;0.43;;;23.50;31.20;;;;;;5097302;28;20485;-49
2021/12/31 11:18:44;;;;;;;1.33;0.50;;;23.30;32.60;;;;;;5098183;28;20481;-50
2021/12/31 11:21:13;;;;;;;3.23;0.80;;;23.00;32.30;;;;;;5097231;28;20386;-50
2021/12/31 11:23:43;;;;;;;3.60;0.90;;;22.50;32.50;;;;;;5097161;28;20397;-49
2021/12/31 11:26:14;;;;;;;1.80;0.93;;;22.40;33.00;;;;;;5097465;28;20390;-49
2021/12/31 11:28:44;;;;;;;2.10;0.93;;;22.10;33.20;;;;;;5064784;28;20413;-50
2021/12/31 11:31:23;;;;;;;1.80;0.90;;;21.90;33.30;;;;;;5097982;28;20418;-49
2021/12/31 11:34:00;;;;;;;1.53;0.70;;;21.80;33.20;;;;;;5080643;28;20386;-49
2021/12/31 11:36:57;;;;;;;2.47;0.90;;;21.90;33.90;;;;;;5096809;28;20406;-49
2021/12/31 11:39:29;;;;;;;1.80;1.00;;;22.50;33.30;;;;;;5080998;28;20926;-49
2021/12/31 11:42:01;;;;;;;1.40;0.80;;;23.20;31.90;;;;;;5096724;28;20488;-49
2021/12/31 11:44:30;;;;;;;1.43;0.80;;;23.60;31.90;;;;;;5098026;28;20458;-49
2021/12/31 11:47:18;;;;;;;1.80;0.83;;;23.60;31.00;;;;;;5097647;28;20450;-49
2021/12/31 11:49:46;;;;;;;1.50;0.67;;;23.30;31.40;;;;;;5097568;28;20406;-50
2021/12/31 11:52:20;;;;;;;1.83;0.63;;;23.30;31.10;;;;;;5096697;28;20405;-49
2021/12/31 11:55:08;;;;;;;1.20;0.50;;;23.50;30.70;;;;;;5080538;28;20411;-48
2021/12/31 11:57:36;;;;;;;1.40;0.47;;;23.80;30.60;;;;;;5096785;28;20417;-48
2021/12/31 12:00:04;;;;;;;1.47;0.70;;;23.70;30.80;;;;;;5097326;28;20485;-49
2021/12/31 12:02:39;;;;;;;2.37;1.00;;;23.60;30.90;;;;;;5097365;28;20402;-49
2021/12/31 12:05:11;;;;;;;1.60;0.90;;;23.30;31.00;;;;;;5097367;28;20413;-49
2021/12/31 12:07:46;;;;;;;1.40;0.77;;;23.00;31.20;;;;;;5080789;28;20464;-48
2021/12/31 12:10:24;;;;;;;1.43;0.70;;;22.70;31.80;;;;;;5063017;28;20475;-48
2021/12/31 12:12:53;;;;;;;1.50;0.87;;;22.70;32.00;;;;;;5096210;28;20742;-49
2021/12/31 12:15:20;;;;;;;2.23;0.90;;;22.80;32.60;;;;;;5096326;28;20414;-49
2021/12/31 12:17:48;;;;;;;1.30;0.53;;;22.90;31.60;;;;;;5097148;28;20394;-49
2021/12/31 12:20:22;;;;;;;1.50;0.50;;;22.80;31.60;;;;;;5079721;28;20422;-49
2021/12/31 12:22:56;;;;;;;1.50;0.73;;;22.60;31.50;;;;;;5080057;28;20414;-49
2021/12/31 12:25:25;;;;;;;3.10;1.30;;;22.40;32.10;;;;;;5079769;28;20452;-49
2021/12/31 12:28:01;;;;;;;1.60;0.80;;;22.40;32.80;;;;;;5095951;28;20453;-49
2021/12/31 12:30:29;;;;;;;1.93;0.90;;;22.40;32.50;;;;;;5079232;28;20441;-49
2021/12/31 12:33:16;;;;;;;2.00;1.33;;;22.30;32.70;;;;;;5096914;28;20433;-49
2021/12/31 12:35:47;;;;;;;1.60;0.70;;;22.10;32.80;;;;;;5096572;28;20390;-49
2021/12/31 12:38:20;;;;;;;1.47;0.80;;;22.20;33.20;;;;;;5079249;28;20412;-49
2021/12/31 12:40:55;;;;;;;2.43;0.73;;;22.20;32.90;;;;;;5095845;28;20444;-49
2021/12/31 12:43:28;;;;;;;1.40;0.60;;;22.10;33.20;;;;;;5096360;28;20499;-49
2021/12/31 12:45:58;;;;;;;1.30;0.70;;;22.00;33.30;;;;;;5096620;28;20429;-50
2021/12/31 12:48:45;;;;;;;1.30;0.60;;;21.70;33.70;;;;;;5096372;28;20898;-49
2021/12/31 12:51:15;;;;;;;2.03;0.70;;;21.30;33.90;;;;;;5096390;28;20413;-48
2021/12/31 12:53:50;;;;;;;1.50;0.63;;;20.80;34.90;;;;;;5095605;28;20409;-49
2021/12/31 12:56:21;;;;;;;1.47;0.70;;;20.40;35.60;;;;;;5095455;28;20378;-49
2021/12/31 12:58:54;;;;;;;2.40;1.13;;;20.20;35.90;;;;;;5078713;28;20410;-49
2021/12/31 13:01:42;;;;;;;1.65;0.70;;;20.20;36.00;;;;;;5095499;28;20855;-49
2021/12/31 13:04:11;;;;;;;1.23;0.47;;;20.00;36.00;;;;;;5078972;28;20160;-49